Time;durP1;ratioP1;P1;durP2;ratioP2;P2;SDS_P1;SDS_P2;PMS_P1;PMS_P2;Temp;Humidity;BMP_temperature;BMP_pressure;BME280_temperature;BME280_humidity;BME280_pressure;Samples;Min_cycle;Max_cycle;Signal;HPM_P1;HPM_P2
2021/07/31 00:03:47;;;;;;;11.50;5.70;;;;;;;16.51;80.65;99508.30;714114;1200;114162;-75
2021/07/31 00:19:03;;;;;;;9.15;5.55;;;;;;;16.13;82.09;99519.19;714389;1202;114198;-76
2021/07/31 00:34:05;;;;;;;11.80;5.70;;;;;;;15.96;84.35;99524.72;714413;1199;115285;-74
2021/07/31 00:49:07;;;;;;;14.85;7.63;;;;;;;16.20;85.33;99521.89;714386;1199;113807;-75
2021/07/31 01:04:10;;;;;;;11.38;6.10;;;;;;;16.22;86.25;99530.44;713985;1202;115087;-75
2021/07/31 01:19:13;;;;;;;15.53;7.13;;;;;;;15.99;86.30;99510.30;714470;1176;115104;-75
2021/07/31 01:34:15;;;;;;;10.43;6.03;;;;;;;15.91;87.92;99507.79;714123;1200;114493;-76
2021/07/31 01:49:17;;;;;;;15.03;7.30;;;;;;;15.86;88.85;99465.22;714393;1199;115224;-75
2021/07/31 02:04:19;;;;;;;15.85;8.30;;;;;;;15.83;90.33;99436.52;714198;1199;114506;-76
2021/07/31 02:19:21;;;;;;;15.63;8.83;;;;;;;15.89;90.55;99444.52;714184;1205;114186;-75
2021/07/31 02:34:23;;;;;;;11.17;6.53;;;;;;;15.35;90.65;99448.44;715049;1200;114347;-75
2021/07/31 02:49:25;;;;;;;16.73;8.60;;;;;;;14.87;92.31;99477.91;714023;1205;114528;-75
2021/07/31 03:04:27;;;;;;;12.80;8.18;;;;;;;14.91;93.96;99489.77;713887;1199;113808;-75
2021/07/31 03:19:30;;;;;;;13.35;8.38;;;;;;;15.33;95.32;99489.26;714120;1199;115234;-74
2021/07/31 03:34:32;;;;;;;18.53;9.60;;;;;;;15.64;95.66;99491.64;714336;1199;114705;-76
2021/07/31 03:49:34;;;;;;;16.10;9.33;;;;;;;15.95;95.65;99501.11;714006;1199;113795;-74
2021/07/31 04:04:36;;;;;;;18.20;8.60;;;;;;;16.29;95.29;99486.34;714376;1200;115074;-75
2021/07/31 04:19:39;;;;;;;19.23;9.38;;;;;;;16.71;95.52;99478.48;714285;1199;114124;-76
2021/07/31 04:34:41;;;;;;;39.07;15.90;;;;;;;17.00;94.56;99473.95;714742;1200;113918;-74
2021/07/31 04:49:43;;;;;;;15.78;8.28;;;;;;;17.40;94.93;99482.07;714309;1202;114890;-76
2021/07/31 05:04:45;;;;;;;13.90;7.93;;;;;;;18.04;93.66;99488.75;714324;1192;113980;-76
2021/07/31 05:19:48;;;;;;;10.28;6.30;;;;;;;18.88;91.23;99480.25;714274;1199;114280;-75
2021/07/31 05:34:55;;;;;;;10.88;7.63;;;;;;;19.50;89.35;99507.22;714331;1192;114267;-76
2021/07/31 05:49:58;;;;;;;8.93;5.43;;;;;;;20.54;86.24;99490.91;714263;1200;114211;-72
2021/07/31 06:05:01;;;;;;;8.93;4.40;;;;;;;21.40;81.06;99506.98;714648;1199;113954;-80
2021/07/31 06:20:04;;;;;;;7.35;4.58;;;;;;;22.07;76.50;99494.57;714384;1176;113517;-80
2021/07/31 06:35:06;;;;;;;9.13;3.75;;;;;;;22.62;72.69;99489.95;714195;1200;113661;-76
2021/07/31 06:50:10;;;;;;;9.10;3.97;;;;;;;23.03;70.34;99475.59;714604;1199;114832;-75
2021/07/31 07:05:17;;;;;;;11.58;4.18;;;;;;;23.61;68.20;99470.27;714414;1199;113895;-78
2021/07/31 07:20:19;;;;;;;6.88;3.70;;;;;;;24.43;66.87;99487.66;714682;1176;114317;-74
2021/07/31 07:35:22;;;;;;;9.15;3.60;;;;;;;25.12;66.07;99472.20;714837;1200;113482;-84
2021/07/31 07:50:25;;;;;;;9.78;3.45;;;;;;;25.63;64.08;99471.95;716692;1199;114175;-79
2021/07/31 08:05:28;;;;;;;5.35;3.10;;;;;;;26.53;63.59;99444.38;714641;1199;114390;-80
2021/07/31 08:20:30;;;;;;;11.88;4.70;;;;;;;27.60;62.08;99433.42;714700;1183;114013;-79
2021/07/31 08:35:32;;;;;;;3.93;2.77;;;;;;;27.78;61.07;99438.27;714904;1199;114256;-79
2021/07/31 08:50:36;;;;;;;7.83;2.88;;;;;;;28.33;59.55;99437.67;714995;1200;114563;-78
2021/07/31 09:05:39;;;;;;;4.83;2.87;;;;;;;27.96;57.34;99434.20;715354;1200;113695;-79
2021/07/31 09:20:42;;;;;;;4.70;2.67;;;;;;;28.44;58.09;99403.38;714974;1191;114181;-75
2021/07/31 09:35:48;;;;;;;6.38;2.80;;;;;;;29.42;57.09;99389.38;716028;1199;115100;-75
2021/07/31 09:50:51;;;;;;;4.03;3.03;;;;;;;28.94;55.62;99377.27;714776;1200;113645;-77
2021/07/31 10:05:54;;;;;;;5.60;2.78;;;;;;;29.92;55.08;99356.80;715280;1200;114018;-75
2021/07/31 10:21:10;;;;;;;14.13;9.23;;;;;;;30.76;53.38;99331.19;715181;1199;114109;-78
2021/07/31 10:36:35;;;;;;;4.88;3.53;;;;;;;29.99;54.37;99320.23;717020;1205;116420;-77
2021/07/31 10:51:39;;;;;;;8.87;4.00;;;;;;;30.15;53.36;99317.36;714776;1177;113669;-76
2021/07/31 11:07:09;;;;;;;8.15;3.68;;;;;;;30.85;53.28;99316.69;714696;1199;113715;-77
2021/07/31 11:22:11;;;;;;;5.90;3.38;;;;;;;30.82;52.85;99289.42;715861;1178;114722;-78
2021/07/31 11:37:15;;;;;;;5.83;3.53;;;;;;;31.49;52.33;99267.46;714762;1199;114252;-75
2021/07/31 11:52:19;;;;;;;6.83;4.65;;;;;;;31.54;52.90;99250.29;714553;1200;114150;-79
2021/07/31 12:07:24;;;;;;;9.23;4.50;;;;;;;31.30;51.56;99231.52;716347;1200;114476;-80
2021/07/31 12:22:34;;;;;;;8.10;4.20;;;;;;;30.48;52.77;99201.19;715003;1199;114452;-74
2021/07/31 12:37:48;;;;;;;9.58;4.18;;;;;;;29.61;52.21;99220.11;714456;1177;114047;-74
2021/07/31 12:52:50;;;;;;;9.03;4.90;;;;;;;29.48;56.97;99237.80;713974;1200;114590;-75
2021/07/31 13:07:54;;;;;;;10.80;4.68;;;;;;;30.50;54.98;99224.14;714195;1175;114388;-75
2021/07/31 13:22:56;;;;;;;12.50;5.98;;;;;;;30.37;54.70;99214.83;722542;1200;114785;-78
2021/07/31 13:37:59;;;;;;;8.90;3.67;;;;;;;31.26;49.89;99217.76;715524;1175;114151;-80
2021/07/31 13:53:02;;;;;;;5.60;3.05;;;;;;;31.07;48.99;99233.27;720317;1200;114404;-86
2021/07/31 14:08:05;;;;;;;9.90;3.80;;;;;;;31.44;47.10;99243.17;718434;1178;113997;-82
2021/07/31 14:23:10;;;;;;;4.85;2.80;;;;;;;31.84;45.24;99245.41;715940;1178;113548;-80
2021/07/31 14:38:12;;;;;;;4.48;2.05;;;;;;;35.46;37.56;99253.52;714674;1202;114450;-81
2021/07/31 14:53:14;;;;;;;5.43;2.10;;;;;;;31.83;39.81;99254.64;727310;1189;113583;-81
2021/07/31 15:08:17;;;;;;;5.00;1.90;;;;;;;30.47;41.22;99261.79;716289;1205;114256;-81
2021/07/31 15:23:19;;;;;;;6.13;2.30;;;;;;;29.98;43.35;99267.26;714249;1200;113699;-82
2021/07/31 15:38:21;;;;;;;6.77;2.30;;;;;;;30.10;44.67;99277.66;714318;1199;113770;-81
2021/07/31 15:53:24;;;;;;;4.58;3.05;;;;;;;29.52;45.14;99289.36;714622;1177;113741;-82
2021/07/31 16:08:26;;;;;;;14.08;5.68;;;;;;;28.99;44.69;99290.86;714552;1178;113847;-83
2021/07/31 16:23:30;;;;;;;7.05;5.08;;;;;;;28.50;45.85;99299.81;715148;1177;114052;-78
2021/07/31 16:38:33;;;;;;;5.85;3.13;;;;;;;28.48;44.92;99321.66;714476;1189;113620;-76
2021/07/31 16:53:35;;;;;;;4.93;2.63;;;;;;;28.05;45.59;99299.74;714238;1177;114047;-77
2021/07/31 17:08:37;;;;;;;3.43;1.68;;;;;;;27.64;46.00;99306.02;714638;1180;115474;-76
2021/07/31 17:23:40;;;;;;;4.90;1.78;;;;;;;27.19;46.56;99318.42;714459;1200;114498;-78
2021/07/31 17:38:42;;;;;;;5.27;2.20;;;;;;;26.66;47.26;99324.77;714409;1200;113960;-77
2021/07/31 17:53:44;;;;;;;2.20;1.63;;;;;;;26.23;47.80;99326.77;714312;1199;113817;-76
2021/07/31 18:08:46;;;;;;;7.03;1.90;;;;;;;25.71;48.83;99336.41;714422;1200;113988;-78
2021/07/31 18:23:49;;;;;;;7.30;1.75;;;;;;;25.43;49.46;99346.38;714471;1199;113664;-80
2021/07/31 18:38:51;;;;;;;3.15;1.55;;;;;;;25.06;50.25;99364.03;714263;1199;113762;-75
2021/07/31 18:53:53;;;;;;;8.03;2.30;;;;;;;24.57;51.45;99372.86;716047;1200;114858;-76
2021/07/31 19:08:56;;;;;;;5.95;2.25;;;;;;;24.15;52.73;99385.97;714486;1199;114425;-77
2021/07/31 19:23:59;;;;;;;12.13;6.47;;;;;;;23.69;53.69;99394.91;714447;1206;114624;-80
2021/07/31 19:39:01;;;;;;;17.55;7.68;;;;;;;23.40;56.18;99407.55;714684;1196;113835;-81
2021/07/31 19:54:03;;;;;;;9.78;6.15;;;;;;;22.97;56.05;99414.23;714987;1199;113878;-81
2021/07/31 20:09:06;;;;;;;29.58;16.10;;;;;;;22.56;56.83;99424.91;714935;1199;114446;-81
2021/07/31 20:24:09;;;;;;;9.88;5.20;;;;;;;22.21;58.41;99428.38;715265;1177;113960;-82
2021/07/31 20:39:11;;;;;;;9.23;5.53;;;;;;;21.83;59.45;99449.15;714482;1203;113732;-81
2021/07/31 20:54:13;;;;;;;9.70;4.95;;;;;;;21.28;60.15;99468.78;715887;1199;114263;-77
2021/07/31 21:09:16;;;;;;;7.80;4.20;;;;;;;21.03;61.41;99493.70;714389;1203;115201;-77
2021/07/31 21:24:19;;;;;;;7.38;3.23;;;;;;;20.64;62.51;99500.25;714453;1199;113791;-77
2021/07/31 21:39:20;;;;;;;6.97;2.87;;;;;;;20.51;63.37;99503.84;714366;1200;113475;-77
2021/07/31 21:54:23;;;;;;;5.48;2.50;;;;;;;20.34;63.44;99507.09;714234;1199;114014;-77
2021/07/31 22:09:25;;;;;;;6.20;2.25;;;;;;;20.37;63.51;99493.32;715165;1199;113703;-77
2021/07/31 22:24:27;;;;;;;7.30;3.07;;;;;;;20.18;64.07;99524.42;714462;1175;115312;-76
2021/07/31 22:39:30;;;;;;;5.68;2.75;;;;;;;19.61;65.77;99521.68;714660;1192;113540;-77
2021/07/31 22:54:32;;;;;;;6.13;2.40;;;;;;;19.44;66.57;99519.53;716622;1199;113712;-75
2021/07/31 23:09:34;;;;;;;4.40;2.30;;;;;;;19.14;67.19;99542.36;715947;1200;113786;-75
2021/07/31 23:24:37;;;;;;;10.20;3.15;;;;;;;18.83;67.84;99546.48;714758;1199;113631;-75
2021/07/31 23:39:39;;;;;;;4.55;2.48;;;;;;;18.68;68.77;99525.47;715074;1177;114337;-74
2021/07/31 23:54:41;;;;;;;4.10;2.05;;;;;;;18.62;69.31;99527.09;715062;1177;115079;-76
